createdAt,value
2019-02-19T06:37:12.415Z,18.70
2019-02-19T06:39:40.916Z,19.60
2019-02-19T06:47:07.092Z,21.90
2019-02-19T06:49:35.907Z,21.90
2019-02-19T06:52:04.573Z,22.00
2019-02-19T06:54:33.136Z,22.30
2019-02-19T06:57:01.655Z,22.30
2019-02-19T06:59:30.192Z,22.00
2019-02-19T07:02:05.852Z,21.90
2019-02-19T07:04:36.114Z,22.70
2019-02-19T07:07:04.690Z,22.90
2019-02-19T07:09:33.262Z,23.10
2019-02-19T07:12:01.900Z,23.00
2019-02-19T07:16:58.817Z,23.30
2019-02-19T07:19:27.494Z,23.00
2019-02-19T07:21:56.143Z,22.80
2019-02-19T07:24:24.729Z,22.90
2019-02-19T07:26:53.411Z,23.30
2019-02-19T07:29:21.974Z,23.30
2019-02-19T07:34:18.889Z,22.80
2019-02-19T07:36:48.365Z,21.70
2019-02-19T07:39:16.966Z,21.30
2019-02-19T07:41:45.679Z,21.60
2019-02-19T07:44:14.167Z,21.80
2019-02-19T07:46:42.660Z,21.90
2019-02-19T07:49:11.353Z,21.50
2019-02-19T07:51:39.800Z,20.80
2019-02-19T07:54:08.291Z,20.90
2019-02-19T07:56:36.894Z,21.20
2019-02-19T08:01:33.860Z,21.50
2019-02-19T08:06:30.747Z,21.10
2019-02-19T08:08:59.438Z,20.80
2019-02-19T08:11:28.095Z,19.90
2019-02-19T08:13:56.762Z,20.30
2019-02-19T08:18:53.812Z,19.40
2019-02-19T08:21:22.473Z,18.90
2019-02-19T08:23:51.094Z,19.00
2019-02-19T08:28:48.156Z,19.20
2019-02-19T08:31:16.884Z,18.90
2019-02-19T08:33:45.514Z,18.90
2019-02-19T08:36:14.024Z,18.60
2019-02-19T08:38:43.449Z,18.40
2019-02-19T08:41:12.157Z,18.40
2019-02-19T08:43:40.741Z,18.50
2019-02-19T08:46:09.410Z,18.70
2019-02-19T08:48:38.013Z,19.10
2019-02-19T08:56:03.165Z,20.30
2019-02-19T08:58:31.873Z,20.20
2019-02-19T09:01:00.452Z,19.70
2019-02-19T09:05:57.383Z,19.30
2019-02-19T09:08:26.043Z,19.30
2019-02-19T09:10:54.813Z,19.40
2019-02-19T09:13:23.449Z,19.30
2019-02-19T09:15:52.104Z,19.00
2019-02-19T09:18:20.663Z,18.60
2019-02-19T09:20:49.228Z,18.70
2019-02-19T09:25:46.265Z,18.60
2019-02-19T09:28:14.839Z,18.80
2019-02-19T09:35:42.998Z,20.00
2019-02-19T10:10:22.638Z,18.70
2019-02-19T10:15:19.471Z,17.40
2019-02-19T10:20:16.431Z,19.40
2019-02-19T10:27:42.181Z,20.20
2019-02-19T10:30:18.533Z,19.60
2019-02-19T10:32:47.168Z,18.60
2019-02-19T10:35:15.737Z,18.90
2019-02-19T10:42:43.478Z,20.60
2019-02-19T10:45:19.882Z,20.30
2019-02-19T10:47:48.533Z,20.90
2019-02-19T10:50:17.120Z,20.80
2019-02-19T10:55:14.150Z,20.80
2019-02-19T11:00:18.308Z,21.80
2019-02-19T11:02:47.510Z,21.30
2019-02-19T11:05:16.080Z,20.70
2019-02-19T11:10:14.120Z,20.70
2019-02-19T11:12:42.689Z,19.90
2019-02-19T11:15:15.099Z,20.20
2019-02-19T11:20:17.466Z,20.30
2019-02-19T11:22:46.077Z,21.00
2019-02-19T11:25:14.651Z,21.50
2019-02-19T11:27:43.150Z,21.90
2019-02-19T11:32:41.674Z,23.00
2019-02-19T11:37:38.473Z,22.50
2019-02-19T11:40:09.910Z,22.40
2019-02-19T11:42:38.495Z,22.40
2019-02-19T11:45:10.274Z,24.20
2019-02-19T11:47:38.861Z,23.50
2019-02-19T11:50:08.641Z,24.70
2019-02-19T11:52:37.261Z,24.70
2019-02-19T11:55:10.893Z,24.30
2019-02-19T11:57:39.492Z,24.90
2019-02-19T12:00:12.945Z,24.50
2019-02-19T12:02:41.590Z,23.20
2019-02-19T12:05:10.165Z,22.80
2019-02-19T12:07:38.854Z,22.60
2019-02-19T12:10:11.897Z,23.00
2019-02-19T12:12:40.391Z,22.70
2019-02-19T12:15:11.009Z,23.00
2019-02-19T12:17:39.654Z,22.90
2019-02-19T12:20:12.548Z,21.90
2019-02-19T12:22:41.241Z,21.80
2019-02-19T12:25:10.424Z,21.90
2019-02-19T12:27:38.992Z,21.80
2019-02-19T12:30:16.496Z,22.90
2019-02-19T12:32:45.147Z,23.70
2019-02-19T12:35:13.801Z,24.90
2019-02-19T12:37:42.489Z,25.70
2019-02-19T12:40:13.392Z,25.80
2019-02-19T12:42:41.970Z,26.30
2019-02-19T12:45:13.834Z,25.10
2019-02-19T12:47:42.437Z,23.50
2019-02-19T12:50:15.950Z,23.30
2019-02-19T12:52:44.628Z,24.00
2019-02-19T12:55:13.266Z,24.30
2019-02-19T12:57:41.910Z,24.70
2019-02-19T13:00:17.665Z,25.30
2019-02-19T13:02:46.329Z,26.20
2019-02-19T13:05:15.771Z,25.50
2019-02-19T13:07:44.441Z,24.30
2019-02-19T13:10:13.015Z,23.60
2019-02-19T13:12:41.695Z,23.90
2019-02-19T13:15:18.823Z,24.60
2019-02-19T13:17:47.476Z,24.10
2019-02-19T13:20:16.120Z,23.90
2019-02-19T13:22:44.799Z,25.20
2019-02-19T13:25:13.439Z,24.90
2019-02-19T13:27:42.084Z,25.90
2019-02-19T13:30:24.139Z,26.90
2019-02-19T13:32:52.786Z,27.50
2019-02-19T13:35:21.433Z,27.70
2019-02-19T13:37:50.111Z,27.60
2019-02-19T13:40:19.572Z,27.60
2019-02-19T13:50:17.661Z,24.90
2019-02-19T14:00:19.186Z,24.70
2019-02-19T14:02:47.824Z,24.90
2019-02-19T14:12:41.542Z,24.20
2019-02-19T14:15:13.204Z,23.70
2019-02-19T14:22:44.530Z,21.70
2019-02-19T14:25:20.269Z,21.80
2019-02-19T14:28:06.853Z,21.50
2019-02-19T14:30:37.109Z,21.60
2019-02-19T14:33:07.762Z,22.10
2019-02-19T14:35:49.977Z,22.50
2019-02-19T14:38:23.127Z,23.00
2019-02-19T14:41:05.465Z,22.70
2019-02-19T14:43:35.744Z,22.70
2019-02-19T14:46:11.821Z,22.80
2019-02-19T14:48:51.977Z,23.30
2019-02-19T14:51:22.616Z,22.90
2019-02-19T14:53:52.898Z,23.10
2019-02-19T14:56:40.148Z,23.60
2019-02-19T14:59:16.404Z,24.20
2019-02-19T15:02:04.704Z,24.50
2019-02-19T15:04:40.602Z,25.10
2019-02-19T15:07:13.920Z,24.90
2019-02-19T15:09:49.780Z,25.60
2019-02-19T15:12:20.292Z,25.60
2019-02-19T15:14:53.433Z,26.30
2019-02-19T15:17:26.606Z,26.20
2019-02-19T15:19:59.766Z,26.10
2019-02-19T15:22:29.966Z,26.30
2019-02-19T15:25:18.561Z,26.10
2019-02-19T15:27:51.997Z,26.00
2019-02-19T15:30:31.423Z,26.30
2019-02-19T15:33:01.706Z,26.30
2019-02-19T15:35:44.170Z,26.30
2019-02-19T15:38:30.824Z,26.10
2019-02-19T15:41:17.264Z,26.70
2019-02-19T15:43:50.497Z,25.70
2019-02-19T15:46:26.171Z,26.30
2019-02-19T15:48:58.291Z,25.80
2019-02-19T15:51:37.519Z,24.70
2019-02-19T15:54:13.739Z,24.60
2019-02-19T15:56:43.942Z,25.40
2019-02-19T15:59:16.649Z,25.30
2019-02-19T16:01:46.861Z,25.10
2019-02-19T16:04:17.117Z,25.50
2019-02-19T16:06:50.107Z,25.40
2019-02-19T16:09:20.253Z,25.60
2019-02-19T16:12:05.591Z,25.20
2019-02-19T16:14:47.834Z,25.20
2019-02-19T16:17:20.972Z,25.90
2019-02-19T16:19:56.979Z,25.90
2019-02-19T16:22:31.655Z,25.90
2019-02-19T16:25:18.278Z,25.70
2019-02-19T16:27:54.385Z,24.80
2019-02-19T16:30:33.598Z,25.60
2019-02-19T16:33:03.853Z,25.70
2019-02-19T16:35:34.093Z,26.00
2019-02-19T16:38:20.245Z,26.40
2019-02-19T16:40:52.981Z,26.60
2019-02-19T16:43:25.986Z,26.10
2019-02-19T16:45:56.286Z,27.00
2019-02-19T16:48:41.872Z,26.60
2019-02-19T16:51:12.099Z,26.20
2019-02-19T16:54:00.520Z,26.30
2019-02-19T16:56:30.782Z,27.00
2019-02-19T16:59:16.977Z,27.40
2019-02-19T17:02:05.482Z,27.30
2019-02-19T17:04:37.808Z,27.20
2019-02-19T17:07:10.722Z,26.50
2019-02-19T17:09:59.377Z,26.90
2019-02-19T17:12:35.469Z,27.20
2019-02-19T17:15:14.873Z,27.50
2019-02-19T17:17:47.853Z,26.50
2019-02-19T17:20:28.844Z,25.90
2019-02-19T17:22:55.747Z,25.80
2019-02-19T17:25:45.297Z,25.30
2019-02-19T17:28:18.230Z,25.10
2019-02-19T17:31:00.231Z,24.10
2019-02-19T17:33:30.377Z,23.90
2019-02-19T17:36:10.677Z,24.40
2019-02-19T17:38:40.835Z,24.30
2019-02-19T17:41:26.365Z,24.20
2019-02-19T17:43:56.589Z,23.90
2019-02-19T17:46:41.857Z,23.80
2019-02-19T17:49:21.317Z,24.00
2019-02-19T17:52:04.492Z,23.90
2019-02-19T17:54:34.689Z,23.90
2019-02-19T17:57:14.007Z,23.30
2019-02-19T17:59:44.230Z,23.20
2019-02-19T18:02:18.900Z,23.60
2019-02-19T18:04:49.135Z,23.00
2019-02-19T18:07:28.279Z,22.20
2019-02-19T18:10:07.338Z,21.60
2019-02-19T18:12:37.587Z,22.00
2019-02-19T18:15:24.926Z,22.40
2019-02-19T18:18:04.071Z,22.40
2019-02-19T18:20:32.707Z,22.10
2019-02-19T18:23:01.810Z,22.40
2019-02-19T18:25:30.413Z,21.90
2019-02-19T18:27:58.979Z,21.90
2019-02-19T18:30:27.629Z,22.00
2019-02-19T18:32:56.251Z,22.50
2019-02-19T18:35:26.558Z,21.60
2019-02-19T18:37:55.004Z,21.30
2019-02-19T18:40:23.588Z,21.30
2019-02-19T18:42:52.247Z,21.10
2019-02-19T18:45:21.218Z,21.20
2019-02-19T18:47:49.838Z,20.90
2019-02-19T18:50:18.349Z,20.60
2019-02-19T18:52:47.963Z,20.50
2019-02-19T18:55:18.224Z,20.50
2019-02-19T18:57:46.803Z,20.60
2019-02-19T19:00:16.629Z,20.70
2019-02-19T19:02:45.233Z,20.40
2019-02-19T19:05:13.821Z,19.90
2019-02-19T19:07:42.471Z,19.80
2019-02-19T19:10:12.347Z,19.90
2019-02-19T19:12:41.067Z,19.90
2019-02-19T19:15:10.338Z,19.60
2019-02-19T19:17:38.992Z,20.00
2019-02-19T19:20:11.663Z,20.50
2019-02-19T19:22:40.357Z,20.40
2019-02-19T19:25:09.331Z,20.40
2019-02-19T19:27:37.954Z,20.00
2019-02-19T19:30:09.596Z,19.70
2019-02-19T19:32:38.301Z,19.70
2019-02-19T19:35:11.414Z,19.90
2019-02-19T19:37:51.806Z,20.20
2019-02-19T19:40:17.858Z,20.00
2019-02-19T19:42:46.491Z,20.00
2019-02-19T19:45:15.150Z,20.20
2019-02-19T19:47:43.809Z,20.30
2019-02-19T19:50:12.493Z,20.30
2019-02-19T19:52:42.634Z,20.40
2019-02-19T19:55:11.663Z,20.50
2019-02-19T19:57:41.876Z,21.10
2019-02-19T20:00:12.756Z,20.60
2019-02-19T20:02:41.388Z,20.60
2019-02-19T20:05:10.651Z,21.20
2019-02-19T20:07:39.322Z,21.80
2019-02-19T20:10:12.759Z,21.30
2019-02-19T20:12:41.376Z,20.90
2019-02-19T20:15:11.945Z,20.40
2019-02-19T20:17:43.428Z,20.40
2019-02-19T20:20:15.063Z,20.20
2019-02-19T20:22:44.994Z,19.70
2019-02-19T20:25:14.675Z,19.90
2019-02-19T20:27:43.347Z,19.90
2019-02-19T20:30:27.667Z,20.30
2019-02-19T20:32:56.242Z,20.00
2019-02-19T20:35:25.199Z,20.10
2019-02-19T20:37:56.011Z,19.40
2019-02-19T20:40:24.929Z,19.60
2019-02-19T20:42:55.100Z,19.80
2019-02-19T20:45:26.107Z,19.30
2019-02-19T20:47:54.753Z,19.80
2019-02-19T20:50:23.414Z,20.50
2019-02-19T20:52:52.102Z,20.40
2019-02-19T20:55:20.764Z,20.50
2019-02-19T20:57:49.420Z,21.10
2019-02-19T21:00:18.526Z,21.00
2019-02-19T21:02:47.075Z,20.50
2019-02-19T21:05:15.738Z,20.20
2019-02-19T21:10:18.539Z,20.40
2019-02-19T21:12:47.172Z,19.80
2019-02-19T21:15:15.916Z,19.30
2019-02-19T21:20:13.089Z,20.00
2019-02-19T21:22:42.158Z,19.70
2019-02-19T21:32:40.474Z,19.30
2019-02-19T21:35:09.720Z,17.60
2019-02-19T21:47:38.826Z,17.10
2019-02-19T22:00:24.304Z,17.60
2019-02-19T22:02:55.843Z,17.70
2019-02-19T22:07:52.717Z,18.10
2019-02-19T22:15:17.770Z,19.00
2019-02-19T22:17:46.417Z,18.70
2019-02-19T22:22:54.905Z,19.80
2019-02-19T22:30:20.402Z,19.80
2019-02-19T22:35:19.107Z,18.90
2019-02-19T22:40:15.859Z,19.30
2019-02-19T22:45:12.867Z,18.10
2019-02-19T23:05:07.727Z,19.40
2019-02-19T23:12:34.558Z,19.90
2019-02-19T23:15:03.192Z,19.60
2019-02-19T23:17:31.840Z,19.80
2019-02-19T23:22:29.022Z,21.00
2019-02-19T23:24:57.602Z,20.80
2019-02-19T23:27:26.213Z,20.70
2019-02-19T23:32:23.112Z,21.60
2019-02-19T23:47:15.585Z,21.30
2019-02-19T23:49:44.270Z,21.50
2019-02-19T23:52:12.895Z,20.80
